sensor_id;sensor_type;location;lat;lon;timestamp;P1;durP1;ratioP1;P2;durP2;ratioP2
44366;SDS011;30086;57.660;12.000;2023-04-07T00:01:06;7.57;;;2.33;;
44366;SDS011;30086;57.660;12.000;2023-04-07T00:03:32;7.43;;;2.35;;
44366;SDS011;30086;57.660;12.000;2023-04-07T00:05:58;4.78;;;1.95;;
44366;SDS011;30086;57.660;12.000;2023-04-07T00:08:24;5.25;;;2.50;;
44366;SDS011;30086;57.660;12.000;2023-04-07T00:10:50;11.95;;;2.42;;
44366;SDS011;30086;57.660;12.000;2023-04-07T00:13:16;4.90;;;2.38;;
44366;SDS011;30086;57.660;12.000;2023-04-07T00:15:42;5.32;;;2.60;;
44366;SDS011;30086;57.660;12.000;2023-04-07T00:18:08;6.43;;;2.67;;
44366;SDS011;30086;57.660;12.000;2023-04-07T00:20:34;8.30;;;2.65;;
44366;SDS011;30086;57.660;12.000;2023-04-07T00:23:00;5.28;;;2.60;;
44366;SDS011;30086;57.660;12.000;2023-04-07T00:25:26;6.65;;;2.17;;
44366;SDS011;30086;57.660;12.000;2023-04-07T00:27:52;6.20;;;2.88;;
44366;SDS011;30086;57.660;12.000;2023-04-07T00:30:18;5.38;;;2.50;;
44366;SDS011;30086;57.660;12.000;2023-04-07T00:32:44;6.75;;;2.53;;
44366;SDS011;30086;57.660;12.000;2023-04-07T00:35:10;5.32;;;2.28;;
44366;SDS011;30086;57.660;12.000;2023-04-07T00:37:36;5.68;;;2.70;;
44366;SDS011;30086;57.660;12.000;2023-04-07T00:40:03;4.47;;;2.47;;
44366;SDS011;30086;57.660;12.000;2023-04-07T00:42:29;8.18;;;2.42;;
44366;SDS011;30086;57.660;12.000;2023-04-07T00:44:55;5.32;;;2.70;;
44366;SDS011;30086;57.660;12.000;2023-04-07T00:47:21;11.93;;;3.38;;
44366;SDS011;30086;57.660;12.000;2023-04-07T00:49:47;5.13;;;2.92;;
44366;SDS011;30086;57.660;12.000;2023-04-07T00:52:13;3.90;;;2.70;;
44366;SDS011;30086;57.660;12.000;2023-04-07T00:54:43;5.03;;;2.67;;
44366;SDS011;30086;57.660;12.000;2023-04-07T00:57:10;5.53;;;3.08;;
44366;SDS011;30086;57.660;12.000;2023-04-07T00:59:38;5.72;;;2.65;;
44366;SDS011;30086;57.660;12.000;2023-04-07T01:02:07;6.65;;;2.85;;
44366;SDS011;30086;57.660;12.000;2023-04-07T01:04:43;3.78;;;2.50;;
44366;SDS011;30086;57.660;12.000;2023-04-07T01:07:23;5.07;;;2.40;;
44366;SDS011;30086;57.660;12.000;2023-04-07T01:10:02;2.90;;;2.30;;
44366;SDS011;30086;57.660;12.000;2023-04-07T01:12:40;5.53;;;2.88;;
44366;SDS011;30086;57.660;12.000;2023-04-07T01:15:09;6.40;;;2.58;;
44366;SDS011;30086;57.660;12.000;2023-04-07T01:17:37;5.20;;;2.75;;
44366;SDS011;30086;57.660;12.000;2023-04-07T01:20:04;8.07;;;2.78;;
44366;SDS011;30086;57.660;12.000;2023-04-07T01:22:49;6.18;;;2.85;;
44366;SDS011;30086;57.660;12.000;2023-04-07T01:28:25;5.53;;;2.80;;
44366;SDS011;30086;57.660;12.000;2023-04-07T01:30:58;7.25;;;3.30;;
44366;SDS011;30086;57.660;12.000;2023-04-07T01:33:28;9.25;;;2.63;;
44366;SDS011;30086;57.660;12.000;2023-04-07T01:35:56;11.77;;;3.17;;
44366;SDS011;30086;57.660;12.000;2023-04-07T01:38:24;5.97;;;2.47;;
44366;SDS011;30086;57.660;12.000;2023-04-07T01:40:51;4.65;;;2.30;;
44366;SDS011;30086;57.660;12.000;2023-04-07T01:43:17;7.57;;;2.20;;
44366;SDS011;30086;57.660;12.000;2023-04-07T01:45:44;5.93;;;2.22;;
44366;SDS011;30086;57.660;12.000;2023-04-07T01:48:10;5.93;;;2.92;;
44366;SDS011;30086;57.660;12.000;2023-04-07T01:50:37;15.25;;;2.90;;
44366;SDS011;30086;57.660;12.000;2023-04-07T01:53:03;9.07;;;3.08;;
44366;SDS011;30086;57.660;12.000;2023-04-07T01:55:30;4.43;;;2.35;;
44366;SDS011;30086;57.660;12.000;2023-04-07T01:57:56;7.20;;;2.78;;
44366;SDS011;30086;57.660;12.000;2023-04-07T02:00:22;10.45;;;2.55;;
44366;SDS011;30086;57.660;12.000;2023-04-07T02:02:48;9.35;;;3.05;;
44366;SDS011;30086;57.660;12.000;2023-04-07T02:05:18;6.03;;;2.85;;
44366;SDS011;30086;57.660;12.000;2023-04-07T02:07:57;6.32;;;2.95;;
44366;SDS011;30086;57.660;12.000;2023-04-07T02:10:27;8.35;;;2.90;;
44366;SDS011;30086;57.660;12.000;2023-04-07T02:12:57;5.32;;;2.92;;
44366;SDS011;30086;57.660;12.000;2023-04-07T02:15:24;7.97;;;2.95;;
44366;SDS011;30086;57.660;12.000;2023-04-07T02:17:51;4.85;;;2.70;;
44366;SDS011;30086;57.660;12.000;2023-04-07T02:20:18;3.42;;;2.42;;
44366;SDS011;30086;57.660;12.000;2023-04-07T02:22:44;6.95;;;2.88;;
44366;SDS011;30086;57.660;12.000;2023-04-07T02:25:21;5.78;;;2.58;;
44366;SDS011;30086;57.660;12.000;2023-04-07T02:27:47;8.10;;;2.88;;
44366;SDS011;30086;57.660;12.000;2023-04-07T02:30:13;6.65;;;2.70;;
44366;SDS011;30086;57.660;12.000;2023-04-07T02:32:40;5.53;;;2.70;;
44366;SDS011;30086;57.660;12.000;2023-04-07T02:35:09;4.65;;;2.65;;
44366;SDS011;30086;57.660;12.000;2023-04-07T02:37:36;6.93;;;2.28;;
44366;SDS011;30086;57.660;12.000;2023-04-07T02:40:02;9.70;;;3.20;;
44366;SDS011;30086;57.660;12.000;2023-04-07T02:42:28;8.00;;;2.58;;
44366;SDS011;30086;57.660;12.000;2023-04-07T02:44:54;4.53;;;2.92;;
44366;SDS011;30086;57.660;12.000;2023-04-07T02:47:21;5.90;;;2.80;;
44366;SDS011;30086;57.660;12.000;2023-04-07T02:49:47;5.13;;;2.75;;
44366;SDS011;30086;57.660;12.000;2023-04-07T02:52:13;6.53;;;2.67;;
44366;SDS011;30086;57.660;12.000;2023-04-07T02:54:39;5.10;;;2.65;;
44366;SDS011;30086;57.660;12.000;2023-04-07T02:57:05;4.97;;;2.70;;
44366;SDS011;30086;57.660;12.000;2023-04-07T02:59:31;7.03;;;2.38;;
44366;SDS011;30086;57.660;12.000;2023-04-07T03:02:00;7.78;;;2.67;;
44366;SDS011;30086;57.660;12.000;2023-04-07T03:04:26;5.93;;;2.75;;
44366;SDS011;30086;57.660;12.000;2023-04-07T03:06:52;4.55;;;2.50;;
44366;SDS011;30086;57.660;12.000;2023-04-07T03:09:18;6.35;;;2.70;;
44366;SDS011;30086;57.660;12.000;2023-04-07T03:11:44;7.00;;;2.80;;
44366;SDS011;30086;57.660;12.000;2023-04-07T03:14:10;3.90;;;1.77;;
44366;SDS011;30086;57.660;12.000;2023-04-07T03:16:36;4.68;;;2.13;;
44366;SDS011;30086;57.660;12.000;2023-04-07T03:19:02;7.22;;;2.28;;
44366;SDS011;30086;57.660;12.000;2023-04-07T03:21:28;4.93;;;2.72;;
44366;SDS011;30086;57.660;12.000;2023-04-07T03:23:56;3.45;;;2.40;;
44366;SDS011;30086;57.660;12.000;2023-04-07T03:26:22;5.22;;;2.30;;
44366;SDS011;30086;57.660;12.000;2023-04-07T03:28:48;5.63;;;2.55;;
44366;SDS011;30086;57.660;12.000;2023-04-07T03:31:14;4.70;;;2.63;;
44366;SDS011;30086;57.660;12.000;2023-04-07T03:33:40;5.35;;;2.72;;
44366;SDS011;30086;57.660;12.000;2023-04-07T03:36:06;8.52;;;2.80;;
44366;SDS011;30086;57.660;12.000;2023-04-07T03:38:32;6.30;;;3.05;;
44366;SDS011;30086;57.660;12.000;2023-04-07T03:40:58;4.82;;;2.70;;
44366;SDS011;30086;57.660;12.000;2023-04-07T03:43:24;4.90;;;2.80;;
44366;SDS011;30086;57.660;12.000;2023-04-07T03:45:54;6.15;;;2.80;;
44366;SDS011;30086;57.660;12.000;2023-04-07T03:48:20;5.03;;;2.47;;
44366;SDS011;30086;57.660;12.000;2023-04-07T03:50:46;8.10;;;3.13;;
44366;SDS011;30086;57.660;12.000;2023-04-07T03:53:15;4.75;;;2.88;;
44366;SDS011;30086;57.660;12.000;2023-04-07T03:55:43;6.30;;;2.42;;
44366;SDS011;30086;57.660;12.000;2023-04-07T03:58:09;9.57;;;2.83;;
44366;SDS011;30086;57.660;12.000;2023-04-07T04:00:35;5.38;;;2.47;;
44366;SDS011;30086;57.660;12.000;2023-04-07T04:03:01;6.22;;;2.90;;
44366;SDS011;30086;57.660;12.000;2023-04-07T04:05:27;6.35;;;2.88;;
44366;SDS011;30086;57.660;12.000;2023-04-07T04:07:54;4.82;;;2.35;;
44366;SDS011;30086;57.660;12.000;2023-04-07T04:10:20;6.88;;;3.22;;
44366;SDS011;30086;57.660;12.000;2023-04-07T04:12:46;10.55;;;2.78;;
44366;SDS011;30086;57.660;12.000;2023-04-07T04:15:12;6.18;;;3.10;;
44366;SDS011;30086;57.660;12.000;2023-04-07T04:17:39;9.02;;;3.53;;
44366;SDS011;30086;57.660;12.000;2023-04-07T04:20:06;5.78;;;3.10;;
44366;SDS011;30086;57.660;12.000;2023-04-07T04:22:32;9.25;;;3.05;;
44366;SDS011;30086;57.660;12.000;2023-04-07T04:24:59;10.75;;;3.13;;
44366;SDS011;30086;57.660;12.000;2023-04-07T04:27:25;4.47;;;2.58;;
44366;SDS011;30086;57.660;12.000;2023-04-07T04:29:52;5.35;;;2.63;;
44366;SDS011;30086;57.660;12.000;2023-04-07T04:32:18;5.68;;;2.33;;
44366;SDS011;30086;57.660;12.000;2023-04-07T04:34:45;14.88;;;3.17;;
44366;SDS011;30086;57.660;12.000;2023-04-07T04:37:11;12.15;;;3.45;;
44366;SDS011;30086;57.660;12.000;2023-04-07T04:39:37;7.88;;;3.20;;
44366;SDS011;30086;57.660;12.000;2023-04-07T04:42:06;8.00;;;2.58;;
44366;SDS011;30086;57.660;12.000;2023-04-07T04:44:32;6.88;;;3.20;;
44366;SDS011;30086;57.660;12.000;2023-04-07T04:46:58;5.32;;;2.58;;
44366;SDS011;30086;57.660;12.000;2023-04-07T04:49:24;7.28;;;3.03;;
44366;SDS011;30086;57.660;12.000;2023-04-07T04:51:50;9.63;;;3.00;;
44366;SDS011;30086;57.660;12.000;2023-04-07T04:54:19;6.75;;;2.85;;
44366;SDS011;30086;57.660;12.000;2023-04-07T04:56:45;6.88;;;2.90;;
44366;SDS011;30086;57.660;12.000;2023-04-07T04:59:12;9.55;;;3.13;;
44366;SDS011;30086;57.660;12.000;2023-04-07T05:01:38;10.77;;;2.80;;
44366;SDS011;30086;57.660;12.000;2023-04-07T05:04:04;9.98;;;3.10;;
44366;SDS011;30086;57.660;12.000;2023-04-07T05:06:30;11.45;;;3.15;;
44366;SDS011;30086;57.660;12.000;2023-04-07T05:08:59;6.25;;;2.60;;
44366;SDS011;30086;57.660;12.000;2023-04-07T05:11:25;8.68;;;2.80;;
44366;SDS011;30086;57.660;12.000;2023-04-07T05:13:51;10.10;;;2.83;;
44366;SDS011;30086;57.660;12.000;2023-04-07T05:16:17;3.88;;;2.53;;
44366;SDS011;30086;57.660;12.000;2023-04-07T05:18:43;5.47;;;2.78;;
44366;SDS011;30086;57.660;12.000;2023-04-07T05:21:09;7.28;;;2.97;;
44366;SDS011;30086;57.660;12.000;2023-04-07T05:23:35;6.38;;;2.97;;
44366;SDS011;30086;57.660;12.000;2023-04-07T05:26:04;5.28;;;2.72;;
44366;SDS011;30086;57.660;12.000;2023-04-07T05:28:30;7.05;;;3.20;;
44366;SDS011;30086;57.660;12.000;2023-04-07T05:30:56;9.05;;;3.83;;
44366;SDS011;30086;57.660;12.000;2023-04-07T05:33:23;5.13;;;2.95;;
44366;SDS011;30086;57.660;12.000;2023-04-07T05:35:49;9.20;;;3.28;;
44366;SDS011;30086;57.660;12.000;2023-04-07T05:38:18;8.52;;;2.90;;
44366;SDS011;30086;57.660;12.000;2023-04-07T05:40:44;7.35;;;3.42;;
44366;SDS011;30086;57.660;12.000;2023-04-07T05:43:11;5.25;;;2.75;;
44366;SDS011;30086;57.660;12.000;2023-04-07T05:45:37;8.77;;;2.88;;
44366;SDS011;30086;57.660;12.000;2023-04-07T05:48:03;7.43;;;3.05;;
44366;SDS011;30086;57.660;12.000;2023-04-07T05:50:29;4.72;;;2.88;;
44366;SDS011;30086;57.660;12.000;2023-04-07T05:52:55;5.97;;;2.70;;
44366;SDS011;30086;57.660;12.000;2023-04-07T05:55:21;5.32;;;3.00;;
44366;SDS011;30086;57.660;12.000;2023-04-07T05:57:47;9.13;;;3.20;;
44366;SDS011;30086;57.660;12.000;2023-04-07T06:00:16;7.40;;;3.05;;
44366;SDS011;30086;57.660;12.000;2023-04-07T06:02:43;4.85;;;2.97;;
44366;SDS011;30086;57.660;12.000;2023-04-07T06:05:10;8.57;;;3.00;;
44366;SDS011;30086;57.660;12.000;2023-04-07T06:07:37;7.07;;;3.13;;
44366;SDS011;30086;57.660;12.000;2023-04-07T06:10:03;8.25;;;3.40;;
44366;SDS011;30086;57.660;12.000;2023-04-07T06:12:29;9.38;;;3.15;;
44366;SDS011;30086;57.660;12.000;2023-04-07T06:14:57;8.20;;;2.92;;
44366;SDS011;30086;57.660;12.000;2023-04-07T06:17:23;6.72;;;2.47;;
44366;SDS011;30086;57.660;12.000;2023-04-07T06:19:49;7.75;;;3.05;;
44366;SDS011;30086;57.660;12.000;2023-04-07T06:22:15;6.97;;;2.75;;
44366;SDS011;30086;57.660;12.000;2023-04-07T06:24:41;7.60;;;2.97;;
44366;SDS011;30086;57.660;12.000;2023-04-07T06:27:07;5.07;;;2.63;;
44366;SDS011;30086;57.660;12.000;2023-04-07T06:29:33;3.95;;;2.28;;
44366;SDS011;30086;57.660;12.000;2023-04-07T06:32:00;5.90;;;2.95;;
44366;SDS011;30086;57.660;12.000;2023-04-07T06:34:29;7.05;;;2.78;;
44366;SDS011;30086;57.660;12.000;2023-04-07T06:36:58;6.57;;;3.05;;
44366;SDS011;30086;57.660;12.000;2023-04-07T06:39:25;6.07;;;3.35;;
44366;SDS011;30086;57.660;12.000;2023-04-07T06:41:52;10.35;;;3.10;;
44366;SDS011;30086;57.660;12.000;2023-04-07T06:44:18;8.75;;;2.95;;
44366;SDS011;30086;57.660;12.000;2023-04-07T06:46:44;6.85;;;3.15;;
44366;SDS011;30086;57.660;12.000;2023-04-07T06:49:13;8.25;;;2.90;;
44366;SDS011;30086;57.660;12.000;2023-04-07T06:51:40;7.32;;;3.00;;
44366;SDS011;30086;57.660;12.000;2023-04-07T06:54:06;4.97;;;2.63;;
44366;SDS011;30086;57.660;12.000;2023-04-07T06:56:37;7.03;;;2.90;;
44366;SDS011;30086;57.660;12.000;2023-04-07T06:59:03;5.43;;;2.85;;
44366;SDS011;30086;57.660;12.000;2023-04-07T07:01:29;9.75;;;3.15;;
44366;SDS011;30086;57.660;12.000;2023-04-07T07:03:55;6.68;;;3.45;;
44366;SDS011;30086;57.660;12.000;2023-04-07T07:06:21;5.43;;;2.58;;
44366;SDS011;30086;57.660;12.000;2023-04-07T07:08:47;3.65;;;2.35;;
44366;SDS011;30086;57.660;12.000;2023-04-07T07:11:13;6.07;;;2.80;;
44366;SDS011;30086;57.660;12.000;2023-04-07T07:13:40;3.70;;;2.67;;
44366;SDS011;30086;57.660;12.000;2023-04-07T07:16:06;6.38;;;3.00;;
44366;SDS011;30086;57.660;12.000;2023-04-07T07:18:37;4.18;;;2.78;;
44366;SDS011;30086;57.660;12.000;2023-04-07T07:21:04;5.80;;;2.28;;
44366;SDS011;30086;57.660;12.000;2023-04-07T07:23:30;6.82;;;2.22;;
44366;SDS011;30086;57.660;12.000;2023-04-07T07:25:56;11.65;;;2.80;;
44366;SDS011;30086;57.660;12.000;2023-04-07T07:28:22;8.82;;;3.13;;
44366;SDS011;30086;57.660;12.000;2023-04-07T07:30:48;4.90;;;2.28;;
44366;SDS011;30086;57.660;12.000;2023-04-07T07:33:14;10.70;;;2.75;;
44366;SDS011;30086;57.660;12.000;2023-04-07T07:35:40;6.82;;;2.28;;
44366;SDS011;30086;57.660;12.000;2023-04-07T07:38:06;5.95;;;2.47;;
44366;SDS011;30086;57.660;12.000;2023-04-07T07:40:32;3.75;;;2.10;;
44366;SDS011;30086;57.660;12.000;2023-04-07T07:42:59;3.05;;;1.48;;
44366;SDS011;30086;57.660;12.000;2023-04-07T07:45:25;5.32;;;2.05;;
44366;SDS011;30086;57.660;12.000;2023-04-07T07:47:51;9.95;;;3.55;;
44366;SDS011;30086;57.660;12.000;2023-04-07T07:50:17;3.63;;;1.90;;
44366;SDS011;30086;57.660;12.000;2023-04-07T07:52:43;6.97;;;2.38;;
44366;SDS011;30086;57.660;12.000;2023-04-07T07:55:10;5.10;;;2.08;;
44366;SDS011;30086;57.660;12.000;2023-04-07T07:57:36;5.45;;;1.63;;
44366;SDS011;30086;57.660;12.000;2023-04-07T08:00:02;3.13;;;1.67;;
44366;SDS011;30086;57.660;12.000;2023-04-07T08:02:28;3.60;;;1.60;;
44366;SDS011;30086;57.660;12.000;2023-04-07T08:04:56;3.75;;;1.90;;
44366;SDS011;30086;57.660;12.000;2023-04-07T08:07:22;3.08;;;1.60;;
44366;SDS011;30086;57.660;12.000;2023-04-07T08:09:48;5.43;;;2.10;;
44366;SDS011;30086;57.660;12.000;2023-04-07T08:12:15;2.28;;;1.45;;
44366;SDS011;30086;57.660;12.000;2023-04-07T08:14:41;6.65;;;2.10;;
44366;SDS011;30086;57.660;12.000;2023-04-07T08:17:12;4.07;;;1.67;;
44366;SDS011;30086;57.660;12.000;2023-04-07T08:19:38;5.97;;;2.42;;
44366;SDS011;30086;57.660;12.000;2023-04-07T08:22:04;6.10;;;1.85;;
44366;SDS011;30086;57.660;12.000;2023-04-07T08:24:30;6.25;;;1.55;;
44366;SDS011;30086;57.660;12.000;2023-04-07T08:26:56;4.60;;;1.88;;
44366;SDS011;30086;57.660;12.000;2023-04-07T08:29:25;4.90;;;1.80;;
44366;SDS011;30086;57.660;12.000;2023-04-07T08:31:52;4.30;;;2.20;;
44366;SDS011;30086;57.660;12.000;2023-04-07T08:34:19;12.95;;;1.90;;
44366;SDS011;30086;57.660;12.000;2023-04-07T08:36:45;5.13;;;2.20;;
44366;SDS011;30086;57.660;12.000;2023-04-07T08:39:11;1.60;;;0.98;;
44366;SDS011;30086;57.660;12.000;2023-04-07T08:41:38;3.60;;;1.67;;
44366;SDS011;30086;57.660;12.000;2023-04-07T08:44:05;3.03;;;1.90;;
44366;SDS011;30086;57.660;12.000;2023-04-07T08:46:32;4.07;;;2.05;;
44366;SDS011;30086;57.660;12.000;2023-04-07T08:48:58;2.65;;;1.33;;
44366;SDS011;30086;57.660;12.000;2023-04-07T08:51:29;6.50;;;1.95;;
44366;SDS011;30086;57.660;12.000;2023-04-07T08:54:06;7.47;;;2.47;;
44366;SDS011;30086;57.660;12.000;2023-04-07T08:56:34;4.28;;;2.28;;
44366;SDS011;30086;57.660;12.000;2023-04-07T08:59:02;3.17;;;2.15;;
44366;SDS011;30086;57.660;12.000;2023-04-07T09:01:28;3.28;;;1.88;;
44366;SDS011;30086;57.660;12.000;2023-04-07T09:03:55;4.78;;;1.95;;
44366;SDS011;30086;57.660;12.000;2023-04-07T09:06:22;5.20;;;1.77;;
44366;SDS011;30086;57.660;12.000;2023-04-07T09:08:48;5.63;;;2.17;;
44366;SDS011;30086;57.660;12.000;2023-04-07T09:11:15;6.05;;;2.03;;
44366;SDS011;30086;57.660;12.000;2023-04-07T09:13:41;3.13;;;1.90;;
44366;SDS011;30086;57.660;12.000;2023-04-07T09:16:07;3.65;;;1.92;;
44366;SDS011;30086;57.660;12.000;2023-04-07T09:18:33;6.53;;;1.92;;
44366;SDS011;30086;57.660;12.000;2023-04-07T09:21:03;3.97;;;1.90;;
44366;SDS011;30086;57.660;12.000;2023-04-07T09:23:33;2.83;;;1.85;;
44366;SDS011;30086;57.660;12.000;2023-04-07T09:28:51;4.25;;;1.83;;
44366;SDS011;30086;57.660;12.000;2023-04-07T09:31:18;4.80;;;1.88;;
44366;SDS011;30086;57.660;12.000;2023-04-07T09:33:45;5.35;;;2.05;;
44366;SDS011;30086;57.660;12.000;2023-04-07T09:36:11;2.80;;;1.48;;
44366;SDS011;30086;57.660;12.000;2023-04-07T09:38:38;5.97;;;1.70;;
44366;SDS011;30086;57.660;12.000;2023-04-07T09:41:05;2.67;;;1.52;;
44366;SDS011;30086;57.660;12.000;2023-04-07T09:43:32;3.30;;;1.65;;
44366;SDS011;30086;57.660;12.000;2023-04-07T09:46:33;3.30;;;1.52;;
44366;SDS011;30086;57.660;12.000;2023-04-07T09:49:00;5.63;;;1.95;;
44366;SDS011;30086;57.660;12.000;2023-04-07T09:51:27;11.57;;;2.75;;
44366;SDS011;30086;57.660;12.000;2023-04-07T09:53:53;10.43;;;2.55;;
44366;SDS011;30086;57.660;12.000;2023-04-07T09:56:20;2.90;;;1.67;;
44366;SDS011;30086;57.660;12.000;2023-04-07T09:58:47;4.72;;;2.13;;
44366;SDS011;30086;57.660;12.000;2023-04-07T10:01:24;4.50;;;1.52;;
44366;SDS011;30086;57.660;12.000;2023-04-07T10:03:51;4.28;;;1.70;;
44366;SDS011;30086;57.660;12.000;2023-04-07T10:06:20;2.40;;;1.42;;
44366;SDS011;30086;57.660;12.000;2023-04-07T10:11:47;6.15;;;1.75;;
44366;SDS011;30086;57.660;12.000;2023-04-07T10:14:17;3.22;;;1.90;;
44366;SDS011;30086;57.660;12.000;2023-04-07T10:16:45;3.35;;;1.60;;
44366;SDS011;30086;57.660;12.000;2023-04-07T10:19:11;2.97;;;1.42;;
44366;SDS011;30086;57.660;12.000;2023-04-07T10:21:41;3.60;;;1.80;;
44366;SDS011;30086;57.660;12.000;2023-04-07T10:26:34;4.70;;;1.60;;
44366;SDS011;30086;57.660;12.000;2023-04-07T10:29:03;2.95;;;1.55;;
44366;SDS011;30086;57.660;12.000;2023-04-07T10:31:30;3.70;;;1.30;;
44366;SDS011;30086;57.660;12.000;2023-04-07T10:33:59;3.20;;;1.83;;
44366;SDS011;30086;57.660;12.000;2023-04-07T10:36:29;2.60;;;1.50;;
44366;SDS011;30086;57.660;12.000;2023-04-07T10:41:34;4.20;;;1.38;;
44366;SDS011;30086;57.660;12.000;2023-04-07T10:44:08;2.88;;;1.45;;
44366;SDS011;30086;57.660;12.000;2023-04-07T10:49:12;1.85;;;1.20;;
44366;SDS011;30086;57.660;12.000;2023-04-07T10:51:42;5.05;;;1.20;;
44366;SDS011;30086;57.660;12.000;2023-04-07T10:59:14;3.75;;;1.20;;
44366;SDS011;30086;57.660;12.000;2023-04-07T11:01:41;3.70;;;1.30;;
44366;SDS011;30086;57.660;12.000;2023-04-07T11:04:07;3.58;;;1.08;;
44366;SDS011;30086;57.660;12.000;2023-04-07T11:06:33;1.75;;;1.10;;
44366;SDS011;30086;57.660;12.000;2023-04-07T11:09:00;2.55;;;1.20;;
44366;SDS011;30086;57.660;12.000;2023-04-07T11:11:36;5.95;;;1.10;;
44366;SDS011;30086;57.660;12.000;2023-04-07T11:14:03;4.88;;;0.90;;
44366;SDS011;30086;57.660;12.000;2023-04-07T11:16:36;1.58;;;0.90;;
44366;SDS011;30086;57.660;12.000;2023-04-07T11:19:02;1.30;;;1.20;;
44366;SDS011;30086;57.660;12.000;2023-04-07T11:21:29;2.40;;;1.10;;
44366;SDS011;30086;57.660;12.000;2023-04-07T11:23:55;1.38;;;0.82;;
44366;SDS011;30086;57.660;12.000;2023-04-07T11:26:21;2.30;;;1.02;;
44366;SDS011;30086;57.660;12.000;2023-04-07T11:28:49;1.48;;;0.93;;
44366;SDS011;30086;57.660;12.000;2023-04-07T11:31:29;5.22;;;1.15;;
44366;SDS011;30086;57.660;12.000;2023-04-07T11:34:02;1.00;;;0.80;;
44366;SDS011;30086;57.660;12.000;2023-04-07T11:36:32;2.83;;;1.00;;
44366;SDS011;30086;57.660;12.000;2023-04-07T11:38:59;1.55;;;1.05;;
44366;SDS011;30086;57.660;12.000;2023-04-07T11:41:26;1.83;;;1.00;;
44366;SDS011;30086;57.660;12.000;2023-04-07T11:44:10;1.88;;;1.00;;
44366;SDS011;30086;57.660;12.000;2023-04-07T11:46:50;1.45;;;1.10;;
44366;SDS011;30086;57.660;12.000;2023-04-07T11:49:17;0.93;;;0.80;;
44366;SDS011;30086;57.660;12.000;2023-04-07T11:51:44;1.38;;;1.10;;
44366;SDS011;30086;57.660;12.000;2023-04-07T11:54:11;1.48;;;1.20;;
44366;SDS011;30086;57.660;12.000;2023-04-07T11:56:45;1.42;;;1.02;;
44366;SDS011;30086;57.660;12.000;2023-04-07T12:02:04;1.00;;;0.90;;
44366;SDS011;30086;57.660;12.000;2023-04-07T12:04:30;1.42;;;1.10;;
44366;SDS011;30086;57.660;12.000;2023-04-07T12:07:07;1.30;;;1.00;;
44366;SDS011;30086;57.660;12.000;2023-04-07T12:09:34;3.15;;;1.20;;
44366;SDS011;30086;57.660;12.000;2023-04-07T12:12:01;4.22;;;1.05;;
44366;SDS011;30086;57.660;12.000;2023-04-07T12:14:27;1.55;;;0.95;;
44366;SDS011;30086;57.660;12.000;2023-04-07T12:16:54;1.30;;;1.20;;
44366;SDS011;30086;57.660;12.000;2023-04-07T12:19:22;1.20;;;0.85;;
44366;SDS011;30086;57.660;12.000;2023-04-07T12:21:48;4.43;;;1.52;;
44366;SDS011;30086;57.660;12.000;2023-04-07T12:24:14;0.98;;;0.88;;
44366;SDS011;30086;57.660;12.000;2023-04-07T12:26:41;1.13;;;1.00;;
44366;SDS011;30086;57.660;12.000;2023-04-07T12:29:07;2.22;;;1.25;;
44366;SDS011;30086;57.660;12.000;2023-04-07T12:31:33;4.85;;;0.88;;
44366;SDS011;30086;57.660;12.000;2023-04-07T12:33:59;1.50;;;1.15;;
44366;SDS011;30086;57.660;12.000;2023-04-07T12:36:25;1.27;;;1.15;;
44366;SDS011;30086;57.660;12.000;2023-04-07T12:38:52;2.65;;;0.93;;
44366;SDS011;30086;57.660;12.000;2023-04-07T12:41:18;1.20;;;1.10;;
44366;SDS011;30086;57.660;12.000;2023-04-07T12:43:44;1.75;;;0.95;;
44366;SDS011;30086;57.660;12.000;2023-04-07T12:46:11;2.42;;;0.85;;
44366;SDS011;30086;57.660;12.000;2023-04-07T12:48:37;1.13;;;1.00;;
44366;SDS011;30086;57.660;12.000;2023-04-07T12:51:03;2.20;;;1.17;;
44366;SDS011;30086;57.660;12.000;2023-04-07T12:53:29;1.20;;;0.95;;
44366;SDS011;30086;57.660;12.000;2023-04-07T12:55:56;1.25;;;0.85;;
44366;SDS011;30086;57.660;12.000;2023-04-07T12:58:23;1.27;;;1.00;;
44366;SDS011;30086;57.660;12.000;2023-04-07T13:00:51;1.00;;;0.90;;
44366;SDS011;30086;57.660;12.000;2023-04-07T13:03:17;2.42;;;1.10;;
44366;SDS011;30086;57.660;12.000;2023-04-07T13:05:43;2.58;;;1.08;;
44366;SDS011;30086;57.660;12.000;2023-04-07T13:08:10;2.20;;;1.02;;
44366;SDS011;30086;57.660;12.000;2023-04-07T13:10:36;1.98;;;1.10;;
44366;SDS011;30086;57.660;12.000;2023-04-07T13:13:02;4.22;;;0.90;;
44366;SDS011;30086;57.660;12.000;2023-04-07T13:15:28;3.58;;;1.25;;
44366;SDS011;30086;57.660;12.000;2023-04-07T13:17:55;1.48;;;0.93;;
44366;SDS011;30086;57.660;12.000;2023-04-07T13:20:21;1.27;;;1.08;;
44366;SDS011;30086;57.660;12.000;2023-04-07T13:22:48;2.55;;;1.13;;
44366;SDS011;30086;57.660;12.000;2023-04-07T13:25:16;2.40;;;1.17;;
44366;SDS011;30086;57.660;12.000;2023-04-07T13:27:42;2.65;;;1.13;;
44366;SDS011;30086;57.660;12.000;2023-04-07T13:30:08;2.65;;;1.05;;
44366;SDS011;30086;57.660;12.000;2023-04-07T13:32:34;2.28;;;0.73;;
44366;SDS011;30086;57.660;12.000;2023-04-07T13:35:01;1.67;;;1.30;;
44366;SDS011;30086;57.660;12.000;2023-04-07T13:37:27;2.92;;;1.02;;
44366;SDS011;30086;57.660;12.000;2023-04-07T13:39:54;2.45;;;1.08;;
44366;SDS011;30086;57.660;12.000;2023-04-07T13:42:20;3.50;;;1.20;;
44366;SDS011;30086;57.660;12.000;2023-04-07T13:44:46;3.95;;;1.20;;
44366;SDS011;30086;57.660;12.000;2023-04-07T13:47:14;1.20;;;1.00;;
44366;SDS011;30086;57.660;12.000;2023-04-07T13:49:44;1.95;;;1.17;;
44366;SDS011;30086;57.660;12.000;2023-04-07T13:52:12;1.38;;;0.82;;
44366;SDS011;30086;57.660;12.000;2023-04-07T13:54:38;1.55;;;1.00;;
44366;SDS011;30086;57.660;12.000;2023-04-07T13:57:04;3.47;;;1.00;;
44366;SDS011;30086;57.660;12.000;2023-04-07T13:59:31;1.85;;;0.90;;
44366;SDS011;30086;57.660;12.000;2023-04-07T14:01:57;1.52;;;0.90;;
44366;SDS011;30086;57.660;12.000;2023-04-07T14:04:24;1.50;;;1.00;;
44366;SDS011;30086;57.660;12.000;2023-04-07T14:06:51;2.85;;;0.90;;
44366;SDS011;30086;57.660;12.000;2023-04-07T14:09:17;2.08;;;1.10;;
44366;SDS011;30086;57.660;12.000;2023-04-07T14:11:43;2.58;;;1.52;;
44366;SDS011;30086;57.660;12.000;2023-04-07T14:14:09;1.50;;;0.80;;
44366;SDS011;30086;57.660;12.000;2023-04-07T14:16:35;0.70;;;0.70;;
44366;SDS011;30086;57.660;12.000;2023-04-07T14:19:01;1.10;;;0.85;;
44366;SDS011;30086;57.660;12.000;2023-04-07T14:21:28;1.50;;;0.70;;
44366;SDS011;30086;57.660;12.000;2023-04-07T14:23:55;1.73;;;0.80;;
44366;SDS011;30086;57.660;12.000;2023-04-07T14:26:23;3.10;;;0.77;;
44366;SDS011;30086;57.660;12.000;2023-04-07T14:28:50;0.70;;;0.60;;
44366;SDS011;30086;57.660;12.000;2023-04-07T14:31:17;0.95;;;0.70;;
44366;SDS011;30086;57.660;12.000;2023-04-07T14:33:43;0.73;;;0.68;;
44366;SDS011;30086;57.660;12.000;2023-04-07T14:36:10;0.82;;;0.70;;
44366;SDS011;30086;57.660;12.000;2023-04-07T14:38:36;2.08;;;0.80;;
44366;SDS011;30086;57.660;12.000;2023-04-07T14:41:02;1.77;;;0.90;;
44366;SDS011;30086;57.660;12.000;2023-04-07T14:43:29;1.00;;;0.60;;
44366;SDS011;30086;57.660;12.000;2023-04-07T14:45:55;1.08;;;0.90;;
44366;SDS011;30086;57.660;12.000;2023-04-07T14:48:21;2.58;;;0.70;;
44366;SDS011;30086;57.660;12.000;2023-04-07T14:50:50;1.60;;;0.52;;
44366;SDS011;30086;57.660;12.000;2023-04-07T14:53:16;2.38;;;0.70;;
44366;SDS011;30086;57.660;12.000;2023-04-07T14:55:42;1.73;;;0.77;;
44366;SDS011;30086;57.660;12.000;2023-04-07T14:58:08;0.90;;;0.70;;